Time;durP1;ratioP1;P1;durP2;ratioP2;P2;SDS_P1;SDS_P2;PMS_P1;PMS_P2;Temp;Humidity;BMP_temperature;BMP_pressure;BME280_temperature;BME280_humidity;BME280_pressure;Samples;Min_cycle;Max_cycle;Signal;HPM_P1;HPM_P2
2021/06/01 00:01:24;;;;;;;1.80;1.50;;;20.60;78.30;;;;;;5027612;28;20277;-71
2021/06/01 00:03:50;;;;;;;1.50;1.20;;;20.60;78.40;;;;;;5033042;28;20199;-71
2021/06/01 00:06:18;;;;;;;1.95;1.33;;;20.50;78.40;;;;;;5031695;28;20206;-72
2021/06/01 00:08:45;;;;;;;1.83;1.58;;;20.50;78.40;;;;;;5021784;28;20204;-71
2021/06/01 00:11:12;;;;;;;1.55;1.45;;;20.50;78.40;;;;;;5016816;28;20192;-71
2021/06/01 00:13:39;;;;;;;4.20;1.30;;;20.50;78.50;;;;;;5032076;28;20253;-71
2021/06/01 00:16:07;;;;;;;1.83;1.40;;;20.40;78.50;;;;;;5031025;28;20765;-71
2021/06/01 00:18:33;;;;;;;1.88;1.67;;;20.50;78.70;;;;;;5032270;28;20214;-71
2021/06/01 00:20:59;;;;;;;1.80;1.45;;;20.40;78.60;;;;;;5028729;28;20203;-71
2021/06/01 00:23:27;;;;;;;1.65;1.45;;;20.40;78.70;;;;;;5031085;28;20203;-72
2021/06/01 00:25:54;;;;;;;2.22;1.15;;;20.40;78.60;;;;;;5023810;28;20223;-71
2021/06/01 00:28:20;;;;;;;1.50;1.38;;;20.40;78.90;;;;;;5025771;28;20200;-71
2021/06/01 00:30:47;;;;;;;2.75;1.55;;;20.30;78.80;;;;;;5029908;28;20207;-71
2021/06/01 00:33:13;;;;;;;1.70;1.60;;;20.30;78.90;;;;;;5030739;28;20239;-71
2021/06/01 00:35:39;;;;;;;1.67;1.55;;;20.30;79.00;;;;;;5031360;28;20199;-70
2021/06/01 00:38:06;;;;;;;1.83;1.40;;;20.30;78.70;;;;;;5030923;28;20204;-71
2021/06/01 00:40:34;;;;;;;2.95;1.45;;;20.30;79.10;;;;;;5031035;28;20234;-71
2021/06/01 00:43:00;;;;;;;3.63;1.58;;;20.20;79.20;;;;;;5030616;28;20203;-71
2021/06/01 00:45:27;;;;;;;2.42;1.50;;;20.20;79.20;;;;;;5031029;28;20196;-71
2021/06/01 00:47:54;;;;;;;1.50;1.30;;;20.20;79.30;;;;;;5030615;28;20560;-71
2021/06/01 00:50:22;;;;;;;2.25;1.65;;;20.20;79.30;;;;;;5030562;28;20265;-71
2021/06/01 00:52:49;;;;;;;1.40;1.20;;;20.20;79.50;;;;;;5030547;28;20563;-71
2021/06/01 00:55:16;;;;;;;1.80;1.35;;;20.10;79.30;;;;;;5031448;28;20941;-71
2021/06/01 00:57:44;;;;;;;1.55;1.40;;;20.10;79.40;;;;;;5029597;28;20207;-71
2021/06/01 01:00:29;;;;;;;1.90;1.70;;;20.10;79.50;;;;;;5030871;28;20219;-71
2021/06/01 01:02:55;;;;;;;3.15;1.88;;;20.10;79.50;;;;;;5028771;28;20644;-71
2021/06/01 01:05:25;;;;;;;1.90;1.52;;;20.10;79.60;;;;;;5019657;28;20610;-72
2021/06/01 01:08:05;;;;;;;1.55;1.40;;;20.00;79.50;;;;;;5029835;28;20253;-71
2021/06/01 01:10:33;;;;;;;1.55;1.38;;;20.00;79.60;;;;;;5030693;28;20183;-71
2021/06/01 01:13:04;;;;;;;2.13;1.52;;;20.00;79.80;;;;;;5030144;28;20261;-71
2021/06/01 01:15:33;;;;;;;2.00;1.70;;;20.00;79.80;;;;;;5030107;28;20265;-72
2021/06/01 01:18:04;;;;;;;1.67;1.30;;;20.00;79.90;;;;;;5030788;28;20517;-71
2021/06/01 01:20:35;;;;;;;2.20;1.45;;;20.00;80.00;;;;;;5030127;28;20211;-72
2021/06/01 01:23:07;;;;;;;1.58;1.33;;;19.90;80.00;;;;;;5030214;28;20690;-72
2021/06/01 01:25:38;;;;;;;3.47;1.58;;;19.90;80.10;;;;;;5030408;28;20198;-71
2021/06/01 01:28:15;;;;;;;1.75;1.25;;;19.90;80.20;;;;;;5025658;28;20207;-72
2021/06/01 01:30:46;;;;;;;2.65;2.22;;;19.80;80.20;;;;;;5027132;28;20202;-72
2021/06/01 01:33:21;;;;;;;2.10;1.38;;;19.80;80.40;;;;;;5027984;28;20246;-73
2021/06/01 01:35:50;;;;;;;1.77;1.60;;;19.80;80.40;;;;;;5029804;28;20676;-73
2021/06/01 01:38:17;;;;;;;2.40;1.80;;;19.80;80.50;;;;;;5030343;28;20207;-73
2021/06/01 01:40:46;;;;;;;2.00;1.80;;;19.80;80.60;;;;;;5021871;28;20316;-72
2021/06/01 01:43:17;;;;;;;1.80;1.40;;;19.70;80.60;;;;;;5027399;28;20215;-72
2021/06/01 01:45:48;;;;;;;1.90;1.63;;;19.70;80.70;;;;;;5017191;28;20210;-73
2021/06/01 01:51:16;;;;;;;2.17;1.40;;;19.70;81.00;;;;;;5028861;28;20706;-72
2021/06/01 01:53:48;;;;;;;1.63;1.52;;;19.70;81.00;;;;;;5028220;28;20265;-72
2021/06/01 01:56:15;;;;;;;1.90;1.50;;;19.60;81.00;;;;;;5019542;28;20227;-73
2021/06/01 01:58:42;;;;;;;2.83;1.30;;;19.60;81.10;;;;;;5027952;28;20199;-72
2021/06/01 02:01:09;;;;;;;1.73;1.50;;;19.60;81.30;;;;;;5024880;28;20207;-73
2021/06/01 02:03:39;;;;;;;1.50;1.20;;;19.60;81.30;;;;;;5022438;28;20199;-72
2021/06/01 02:06:05;;;;;;;2.60;1.98;;;19.60;81.40;;;;;;5028292;28;20218;-72
2021/06/01 02:08:31;;;;;;;2.00;1.60;;;19.60;81.50;;;;;;5027238;28;20195;-72
2021/06/01 02:10:57;;;;;;;1.88;1.75;;;19.50;81.50;;;;;;5028135;28;20204;-72
2021/06/01 02:13:27;;;;;;;1.63;1.27;;;19.50;81.60;;;;;;5026047;28;20199;-72
2021/06/01 02:15:53;;;;;;;2.65;2.05;;;19.50;81.80;;;;;;5028721;28;20211;-72
2021/06/01 02:18:19;;;;;;;1.98;1.70;;;19.50;81.90;;;;;;5027444;28;20659;-72
2021/06/01 02:20:50;;;;;;;2.20;1.75;;;19.40;81.90;;;;;;5028216;28;20219;-71
2021/06/01 02:26:16;;;;;;;3.25;1.35;;;19.40;82.20;;;;;;5028515;28;20269;-72
2021/06/01 02:28:47;;;;;;;3.55;1.63;;;19.40;82.30;;;;;;5024399;28;20202;-71
2021/06/01 02:31:17;;;;;;;1.50;1.40;;;19.30;82.30;;;;;;5026975;28;20203;-71
2021/06/01 02:33:45;;;;;;;2.30;1.40;;;19.30;82.50;;;;;;5027256;28;20242;-71
2021/06/01 02:36:15;;;;;;;2.58;1.65;;;19.30;82.50;;;;;;5028164;28;20207;-71
2021/06/01 02:38:42;;;;;;;2.65;1.70;;;19.30;82.60;;;;;;5032481;28;20221;-71
2021/06/01 02:41:09;;;;;;;4.93;1.63;;;19.30;82.80;;;;;;5028860;28;20233;-71
2021/06/01 02:43:35;;;;;;;1.42;1.33;;;19.20;82.80;;;;;;5032534;28;20195;-71
2021/06/01 02:46:02;;;;;;;1.75;1.65;;;19.20;82.80;;;;;;5033660;28;20211;-71
2021/06/01 02:48:28;;;;;;;2.58;1.98;;;19.20;82.90;;;;;;5031961;28;20199;-71
2021/06/01 02:50:57;;;;;;;1.80;1.40;;;19.20;83.10;;;;;;5033471;28;20204;-71
2021/06/01 02:53:26;;;;;;;1.70;1.48;;;19.10;83.10;;;;;;5032565;28;20199;-71
2021/06/01 02:55:52;;;;;;;1.90;1.75;;;19.10;83.10;;;;;;5032910;28;20265;-71
2021/06/01 02:58:19;;;;;;;1.50;1.25;;;19.10;83.20;;;;;;5029596;28;20208;-71
2021/06/01 03:00:46;;;;;;;2.10;1.60;;;19.10;83.30;;;;;;5023555;28;20219;-72
2021/06/01 03:03:13;;;;;;;1.60;1.50;;;19.00;83.50;;;;;;5033934;28;20207;-72
2021/06/01 03:05:40;;;;;;;1.88;1.60;;;19.00;83.30;;;;;;5033202;28;20253;-71
2021/06/01 03:08:14;;;;;;;1.90;1.70;;;19.00;83.50;;;;;;5031234;28;20219;-72
2021/06/01 03:10:42;;;;;;;2.50;1.70;;;18.90;83.50;;;;;;5025744;28;20579;-72
2021/06/01 03:13:08;;;;;;;1.67;1.58;;;18.90;83.50;;;;;;5029393;28;20196;-72
2021/06/01 03:15:34;;;;;;;1.70;1.60;;;18.90;83.70;;;;;;5030607;28;20196;-71
2021/06/01 03:18:01;;;;;;;1.60;1.50;;;18.90;83.80;;;;;;5029815;28;20203;-72
2021/06/01 03:20:27;;;;;;;1.85;1.55;;;18.80;83.80;;;;;;5027952;28;20227;-71
2021/06/01 03:22:53;;;;;;;3.47;1.70;;;18.80;83.90;;;;;;5030220;28;20199;-71
2021/06/01 03:25:20;;;;;;;1.70;1.50;;;18.80;84.10;;;;;;5029603;28;20341;-70
2021/06/01 03:27:48;;;;;;;1.75;1.52;;;18.80;84.10;;;;;;5026687;28;20200;-71
2021/06/01 03:30:15;;;;;;;2.90;1.75;;;18.80;84.30;;;;;;5031252;28;20560;-72
2021/06/01 03:32:41;;;;;;;2.17;1.63;;;18.70;84.20;;;;;;5029193;28;20207;-71
2021/06/01 03:35:09;;;;;;;1.95;1.55;;;18.70;84.30;;;;;;5030499;28;20199;-71
2021/06/01 03:37:35;;;;;;;1.63;1.52;;;18.70;84.50;;;;;;5029588;28;20727;-72
2021/06/01 03:40:02;;;;;;;4.97;2.30;;;18.70;84.50;;;;;;5028247;28;20548;-72
2021/06/01 03:42:28;;;;;;;2.05;1.63;;;18.70;84.50;;;;;;5023383;28;20548;-72
2021/06/01 03:44:56;;;;;;;2.10;1.75;;;18.60;84.50;;;;;;5029634;28;20199;-72
2021/06/01 03:47:22;;;;;;;2.70;1.98;;;18.60;84.50;;;;;;5030215;28;20195;-72
2021/06/01 03:49:48;;;;;;;1.85;1.70;;;18.60;84.60;;;;;;5028680;28;20222;-72
2021/06/01 03:52:14;;;;;;;1.70;1.30;;;18.60;84.70;;;;;;5029639;28;20191;-72
2021/06/01 03:54:41;;;;;;;2.03;1.70;;;18.60;84.70;;;;;;5030235;28;20558;-72
2021/06/01 03:57:10;;;;;;;2.92;1.95;;;18.60;84.80;;;;;;5029801;28;20203;-72
2021/06/01 03:59:37;;;;;;;2.13;1.90;;;18.60;84.80;;;;;;5029356;28;20199;-72
2021/06/01 04:02:05;;;;;;;2.45;1.83;;;18.50;84.80;;;;;;5030053;28;20219;-72
2021/06/01 04:04:31;;;;;;;2.75;2.28;;;18.50;85.00;;;;;;5031829;28;20203;-73
2021/06/01 04:06:57;;;;;;;2.50;1.80;;;18.50;85.10;;;;;;5030509;28;20548;-71
2021/06/01 04:09:23;;;;;;;1.50;1.40;;;18.50;85.10;;;;;;5031808;28;20637;-72
2021/06/01 04:11:50;;;;;;;2.08;1.50;;;18.40;85.10;;;;;;5032072;28;20548;-71
2021/06/01 04:14:18;;;;;;;2.17;1.52;;;18.40;85.10;;;;;;5031732;28;20207;-71
2021/06/01 04:16:45;;;;;;;2.70;2.22;;;18.40;85.10;;;;;;5027859;28;20636;-71
2021/06/01 04:19:12;;;;;;;2.10;1.67;;;18.40;85.30;;;;;;5027192;28;20207;-71
2021/06/01 04:21:40;;;;;;;1.75;1.65;;;18.40;85.50;;;;;;5032448;28;20785;-71
2021/06/01 04:24:07;;;;;;;2.63;1.67;;;18.40;85.60;;;;;;5028287;28;20223;-71
2021/06/01 04:26:33;;;;;;;1.98;1.63;;;18.40;85.60;;;;;;5021794;28;20220;-72
2021/06/01 04:29:00;;;;;;;2.42;1.63;;;18.30;85.70;;;;;;5031656;28;20191;-72
2021/06/01 04:31:26;;;;;;;2.00;1.45;;;18.30;85.80;;;;;;5031395;28;20454;-72
2021/06/01 04:33:52;;;;;;;3.13;1.95;;;18.30;85.90;;;;;;5028073;28;20231;-72
2021/06/01 04:36:20;;;;;;;2.00;1.65;;;18.30;86.10;;;;;;5029630;28;20490;-71
2021/06/01 04:38:46;;;;;;;2.45;1.90;;;18.30;86.20;;;;;;5028580;28;20210;-72
2021/06/01 04:41:12;;;;;;;3.17;2.35;;;18.30;86.10;;;;;;5028823;28;20758;-72
2021/06/01 04:43:38;;;;;;;2.13;1.90;;;18.20;86.20;;;;;;5027962;28;20241;-72
2021/06/01 04:46:04;;;;;;;1.77;1.67;;;18.20;86.30;;;;;;5028455;28;20587;-72
2021/06/01 04:48:31;;;;;;;2.30;1.75;;;18.20;86.20;;;;;;5026484;28;20249;-72
2021/06/01 04:50:57;;;;;;;1.90;1.63;;;18.20;86.20;;;;;;5027990;28;20196;-72
2021/06/01 04:53:24;;;;;;;3.08;1.58;;;18.20;86.50;;;;;;5027827;28;20211;-72
2021/06/01 04:55:51;;;;;;;1.80;1.45;;;18.10;86.30;;;;;;5028098;28;20258;-71
2021/06/01 04:58:17;;;;;;;2.65;2.00;;;18.10;87.10;;;;;;5028511;28;20211;-72
2021/06/01 05:00:43;;;;;;;2.72;2.33;;;18.10;86.40;;;;;;5028402;28;20230;-71
2021/06/01 05:03:09;;;;;;;1.70;1.60;;;18.10;86.60;;;;;;5028409;28;20203;-72
2021/06/01 05:05:36;;;;;;;2.53;2.22;;;18.10;86.70;;;;;;5027895;28;20195;-71
2021/06/01 05:08:02;;;;;;;3.55;2.10;;;18.10;86.50;;;;;;5028375;28;20196;-72
2021/06/01 05:10:30;;;;;;;1.80;1.50;;;18.10;86.50;;;;;;5028068;28;20203;-72
2021/06/01 05:12:56;;;;;;;2.35;2.10;;;18.00;86.90;;;;;;5026773;28;20214;-71
2021/06/01 05:15:22;;;;;;;2.33;2.05;;;18.00;86.70;;;;;;5028767;28;20192;-72
2021/06/01 05:17:48;;;;;;;2.45;2.25;;;18.00;86.70;;;;;;5027149;28;20667;-72
2021/06/01 05:20:15;;;;;;;2.10;1.90;;;18.00;87.00;;;;;;5029915;28;20216;-71
2021/06/01 05:22:42;;;;;;;2.65;2.42;;;18.00;86.70;;;;;;5029763;28;20831;-72
2021/06/01 05:25:10;;;;;;;2.22;1.73;;;18.00;87.00;;;;;;5030622;28;20210;-71
2021/06/01 05:27:38;;;;;;;2.58;1.95;;;18.00;87.10;;;;;;5030266;28;20208;-72
2021/06/01 05:30:06;;;;;;;1.98;1.77;;;18.00;87.60;;;;;;5027116;28;20579;-71
2021/06/01 05:35:22;;;;;;;2.45;2.25;;;18.20;86.80;;;;;;5004016;28;20250;-71
2021/06/01 05:37:50;;;;;;;1.92;1.80;;;18.40;85.90;;;;;;5010695;28;20211;-71
2021/06/01 05:40:17;;;;;;;2.03;1.85;;;18.60;85.00;;;;;;5026756;28;20207;-70
2021/06/01 05:42:44;;;;;;;3.45;2.40;;;18.80;84.20;;;;;;5026720;28;20222;-71
2021/06/01 05:45:11;;;;;;;5.18;2.50;;;19.10;83.40;;;;;;5018514;28;20199;-71
2021/06/01 05:47:37;;;;;;;2.28;1.88;;;19.30;82.10;;;;;;5027579;28;20207;-71
2021/06/01 05:50:05;;;;;;;2.65;2.10;;;19.40;81.40;;;;;;5027280;28;20203;-73
2021/06/01 05:52:34;;;;;;;4.75;2.20;;;19.60;80.50;;;;;;5026720;28;20215;-71
2021/06/01 05:55:02;;;;;;;3.38;2.03;;;19.80;79.90;;;;;;5028084;28;20206;-70
2021/06/01 05:57:28;;;;;;;2.40;1.77;;;20.00;79.20;;;;;;5025702;28;20204;-70
2021/06/01 05:59:55;;;;;;;3.03;2.00;;;20.10;78.50;;;;;;5027170;28;20537;-71
2021/06/01 06:02:22;;;;;;;3.53;1.92;;;20.20;78.00;;;;;;5027020;28;20219;-70
2021/06/01 06:04:48;;;;;;;3.08;2.20;;;20.40;77.50;;;;;;5026940;28;20195;-71
2021/06/01 06:07:14;;;;;;;2.75;2.00;;;20.50;77.10;;;;;;5024902;28;20283;-70
2021/06/01 06:09:40;;;;;;;4.32;2.50;;;20.60;76.80;;;;;;5025693;28;20203;-70
2021/06/01 06:12:08;;;;;;;3.45;2.13;;;20.60;76.30;;;;;;5027534;28;20208;-71
2021/06/01 06:14:34;;;;;;;1.75;1.65;;;20.80;76.20;;;;;;5030049;28;20203;-69
2021/06/01 06:17:08;;;;;;;2.60;2.40;;;20.80;75.90;;;;;;5029675;28;20204;-71
2021/06/01 06:19:41;;;;;;;2.20;2.00;;;20.90;75.60;;;;;;5031471;28;20204;-71
2021/06/01 06:22:08;;;;;;;2.33;2.13;;;21.00;75.40;;;;;;5031055;28;20215;-70
2021/06/01 06:24:34;;;;;;;2.00;1.75;;;21.10;75.30;;;;;;5029693;28;20242;-70
2021/06/01 06:27:01;;;;;;;2.75;1.75;;;21.20;74.80;;;;;;5030376;28;20199;-71
2021/06/01 06:29:27;;;;;;;3.55;1.45;;;21.20;74.60;;;;;;5032601;28;20269;-70
2021/06/01 06:31:53;;;;;;;2.70;2.10;;;21.30;74.50;;;;;;5034035;28;20253;-71
2021/06/01 06:34:21;;;;;;;2.60;1.52;;;21.40;74.30;;;;;;5030551;28;20273;-71
2021/06/01 06:36:47;;;;;;;2.28;2.03;;;21.50;74.20;;;;;;5043497;28;20207;-70
2021/06/01 06:39:13;;;;;;;2.05;1.90;;;21.60;73.90;;;;;;5025054;28;20203;-70
2021/06/01 06:41:39;;;;;;;2.00;1.58;;;21.60;73.70;;;;;;5033277;28;20242;-70
2021/06/01 06:44:08;;;;;;;2.63;1.70;;;21.70;73.50;;;;;;5032849;28;20278;-71
2021/06/01 06:46:38;;;;;;;2.05;1.85;;;21.80;73.30;;;;;;5033489;28;20287;-70
2021/06/01 06:49:04;;;;;;;2.33;2.13;;;21.90;73.10;;;;;;5033754;28;20227;-71
2021/06/01 06:51:32;;;;;;;3.53;2.00;;;22.00;73.00;;;;;;5032834;28;20200;-70
2021/06/01 06:53:58;;;;;;;1.80;1.67;;;22.00;73.00;;;;;;5032069;28;20199;-70
2021/06/01 06:56:26;;;;;;;1.95;1.75;;;22.10;72.60;;;;;;5032841;28;20195;-71
2021/06/01 06:58:53;;;;;;;2.10;1.90;;;22.20;72.40;;;;;;5033761;28;20218;-70
2021/06/01 07:01:20;;;;;;;2.28;1.55;;;22.30;72.50;;;;;;5030969;28;20269;-70
2021/06/01 07:03:47;;;;;;;1.65;1.55;;;22.40;72.40;;;;;;5031892;28;20210;-70
2021/06/01 07:06:13;;;;;;;3.67;1.85;;;22.40;72.20;;;;;;5033723;28;20585;-70
2021/06/01 07:08:40;;;;;;;1.90;1.80;;;22.50;72.00;;;;;;5032845;28;20210;-70
2021/06/01 07:11:07;;;;;;;2.67;1.40;;;22.60;71.60;;;;;;5033797;28;20451;-69
2021/06/01 07:13:42;;;;;;;2.53;1.85;;;22.70;71.60;;;;;;5032012;28;20457;-69
2021/06/01 07:16:09;;;;;;;2.30;1.60;;;22.70;71.40;;;;;;5030614;28;20641;-70
2021/06/01 07:18:38;;;;;;;2.87;1.50;;;22.80;71.20;;;;;;5027952;28;20516;-71
2021/06/01 07:21:05;;;;;;;2.03;1.83;;;22.90;71.20;;;;;;5028043;28;20492;-71
2021/06/01 07:23:32;;;;;;;3.53;1.93;;;23.00;71.30;;;;;;5030671;28;20533;-70
2021/06/01 07:26:00;;;;;;;2.63;1.83;;;23.00;71.00;;;;;;5029746;28;20469;-71
2021/06/01 07:28:26;;;;;;;2.10;1.90;;;23.10;70.80;;;;;;5029994;28;20807;-71
2021/06/01 07:30:53;;;;;;;1.60;1.50;;;23.20;70.90;;;;;;5028937;28;20458;-71
2021/06/01 07:33:19;;;;;;;2.13;1.70;;;23.20;70.80;;;;;;5029281;28;20501;-70
2021/06/01 07:35:45;;;;;;;2.70;1.40;;;23.30;70.60;;;;;;5030634;28;20946;-71
2021/06/01 07:38:13;;;;;;;2.27;1.80;;;23.40;70.60;;;;;;5030250;28;20765;-70
2021/06/01 07:40:40;;;;;;;1.77;1.50;;;23.40;70.40;;;;;;5028914;28;20466;-70
2021/06/01 07:43:07;;;;;;;2.33;1.70;;;23.50;70.40;;;;;;5024581;28;20477;-70
2021/06/01 07:45:34;;;;;;;2.03;1.57;;;23.60;70.40;;;;;;5023981;28;20454;-71
2021/06/01 07:48:01;;;;;;;2.93;1.60;;;23.60;70.00;;;;;;5028692;28;20780;-71
2021/06/01 07:50:27;;;;;;;2.40;1.47;;;23.70;69.80;;;;;;5029191;28;20462;-71
2021/06/01 07:52:54;;;;;;;1.87;1.67;;;23.80;69.90;;;;;;5024820;28;20458;-70
2021/06/01 07:55:20;;;;;;;2.03;1.80;;;23.80;69.80;;;;;;5029942;28;20806;-71
2021/06/01 07:57:46;;;;;;;1.73;1.63;;;23.90;69.70;;;;;;5024798;28;20755;-71
2021/06/01 08:00:15;;;;;;;1.73;1.53;;;24.00;69.90;;;;;;5029671;28;20450;-71
2021/06/01 08:02:42;;;;;;;2.10;1.87;;;24.00;69.20;;;;;;5028942;28;20490;-71
2021/06/01 08:05:10;;;;;;;2.17;1.97;;;24.00;69.30;;;;;;5029476;28;20460;-71
2021/06/01 08:07:36;;;;;;;1.50;1.40;;;24.10;69.70;;;;;;5027473;28;20873;-71
2021/06/01 08:10:04;;;;;;;2.87;1.70;;;24.10;69.30;;;;;;5029853;28;20469;-71
2021/06/01 08:12:30;;;;;;;2.43;1.90;;;24.20;68.90;;;;;;5032564;28;20454;-72
2021/06/01 08:14:58;;;;;;;2.10;1.57;;;24.20;69.00;;;;;;5031301;28;20454;-71
2021/06/01 08:17:26;;;;;;;2.17;1.83;;;24.20;69.40;;;;;;5031618;28;20473;-71
2021/06/01 08:19:54;;;;;;;1.50;1.40;;;24.30;69.20;;;;;;5032303;28;20505;-71
2021/06/01 08:22:30;;;;;;;1.77;1.57;;;24.30;69.20;;;;;;5031788;28;20497;-71
2021/06/01 08:24:57;;;;;;;3.00;1.90;;;24.30;69.20;;;;;;5032203;28;21052;-71
2021/06/01 08:27:23;;;;;;;2.67;1.80;;;24.40;69.40;;;;;;5030512;28;20458;-71
2021/06/01 08:29:49;;;;;;;2.40;1.80;;;24.50;69.30;;;;;;5032702;28;20470;-71
2021/06/01 08:32:16;;;;;;;1.80;1.70;;;24.50;68.30;;;;;;5032468;28;20454;-72
2021/06/01 08:34:43;;;;;;;1.90;1.80;;;24.50;68.70;;;;;;5032540;28;20489;-71
2021/06/01 08:37:10;;;;;;;2.50;1.50;;;24.50;68.80;;;;;;5029524;28;20464;-71
2021/06/01 08:39:36;;;;;;;2.20;1.80;;;24.60;69.10;;;;;;5028304;28;20762;-71
2021/06/01 08:42:03;;;;;;;1.77;1.53;;;24.60;68.70;;;;;;5030954;28;20482;-71
2021/06/01 08:44:29;;;;;;;1.90;1.60;;;24.60;68.80;;;;;;5029541;28;20461;-71
2021/06/01 08:46:56;;;;;;;1.80;1.70;;;24.60;68.80;;;;;;5028473;28;20996;-71
2021/06/01 08:49:23;;;;;;;2.83;1.83;;;24.70;68.70;;;;;;5029171;28;20464;-71
2021/06/01 08:51:51;;;;;;;2.53;1.80;;;24.70;68.40;;;;;;5028900;28;20457;-71
2021/06/01 08:54:17;;;;;;;2.90;1.70;;;24.70;69.00;;;;;;5029448;28;20458;-71
2021/06/01 08:56:44;;;;;;;1.80;1.60;;;24.70;68.40;;;;;;5028025;28;20458;-71
2021/06/01 08:59:11;;;;;;;1.70;1.60;;;24.80;69.00;;;;;;5028196;28;20930;-71
2021/06/01 09:01:38;;;;;;;2.17;1.87;;;24.80;68.10;;;;;;5029724;28;20484;-71
2021/06/01 09:04:08;;;;;;;2.30;2.10;;;24.80;68.40;;;;;;5028892;28;20462;-71
2021/06/01 09:06:36;;;;;;;1.73;1.50;;;24.80;68.60;;;;;;5029185;28;20462;-71
2021/06/01 09:09:25;;;;;;;2.00;1.80;;;24.80;68.60;;;;;;5028133;28;20760;-71
2021/06/01 09:11:59;;;;;;;3.30;2.03;;;24.80;68.60;;;;;;5027890;28;20491;-71
2021/06/01 09:22:49;;;;;;;2.80;2.00;;;24.80;67.60;;;;;;5026348;28;20481;-71
2021/06/01 09:25:21;;;;;;;1.90;1.77;;;24.80;67.40;;;;;;5025525;28;20524;-71
2021/06/01 09:27:48;;;;;;;2.03;1.93;;;24.80;68.60;;;;;;5027657;28;20458;-71
2021/06/01 09:30:36;;;;;;;2.03;1.83;;;24.80;68.00;;;;;;5027319;28;20943;-70
2021/06/01 09:33:04;;;;;;;2.27;1.60;;;24.70;67.00;;;;;;5024966;28;21029;-72
2021/06/01 09:35:48;;;;;;;1.60;1.37;;;24.70;68.20;;;;;;5027209;28;20450;-71
2021/06/01 09:38:17;;;;;;;1.57;1.47;;;24.70;66.30;;;;;;5025758;28;20462;-71
2021/06/01 09:40:46;;;;;;;3.87;1.93;;;24.70;68.00;;;;;;5026761;28;20462;-71
2021/06/01 09:43:14;;;;;;;3.03;1.70;;;24.70;66.90;;;;;;5023337;28;20458;-70
2021/06/01 09:45:41;;;;;;;3.93;2.20;;;24.70;65.80;;;;;;5026958;28;20458;-71
2021/06/01 09:48:09;;;;;;;6.20;1.70;;;24.70;63.70;;;;;;5026365;28;20462;-73
2021/06/01 09:50:42;;;;;;;7.07;3.23;;;24.60;64.30;;;;;;5031468;28;20516;-72
2021/06/01 09:53:10;;;;;;;5.47;1.80;;;24.60;55.70;;;;;;5032211;28;20454;-70
2021/06/01 09:55:42;;;;;;;5.60;2.90;;;24.80;59.40;;;;;;5031512;28;20946;-70
2021/06/01 09:58:13;;;;;;;8.97;2.60;;;24.80;59.90;;;;;;5029187;28;20545;-70
2021/06/01 10:00:41;;;;;;;2.70;1.77;;;24.80;58.90;;;;;;5031696;28;20454;-70
2021/06/01 10:03:14;;;;;;;3.03;2.10;;;24.70;59.20;;;;;;5031439;28;20481;-70
2021/06/01 10:05:41;;;;;;;2.17;1.97;;;24.70;60.60;;;;;;5029179;28;20458;-70
2021/06/01 10:08:13;;;;;;;2.33;1.80;;;24.70;60.80;;;;;;5034811;28;20465;-70
2021/06/01 10:10:40;;;;;;;2.73;1.77;;;24.60;61.60;;;;;;5034573;28;20441;-70
2021/06/01 10:13:09;;;;;;;3.33;1.93;;;24.60;60.70;;;;;;5031737;28;20458;-70
2021/06/01 10:15:38;;;;;;;2.53;2.20;;;24.50;58.10;;;;;;5029818;28;20462;-71
2021/06/01 10:18:06;;;;;;;4.70;2.13;;;24.60;60.10;;;;;;5032003;28;20468;-71
2021/06/01 10:20:34;;;;;;;2.40;2.20;;;24.60;59.60;;;;;;5031705;28;20464;-70
2021/06/01 10:23:01;;;;;;;3.30;2.17;;;24.60;59.70;;;;;;5030793;28;20485;-70
2021/06/01 10:25:27;;;;;;;1.93;1.70;;;24.60;60.00;;;;;;5031498;28;20469;-70
2021/06/01 10:27:58;;;;;;;3.27;2.10;;;24.50;61.10;;;;;;5031224;28;20489;-71
2021/06/01 10:30:26;;;;;;;2.63;2.00;;;24.50;61.20;;;;;;5030678;28;20783;-71
2021/06/01 10:32:58;;;;;;;5.77;2.23;;;24.50;61.90;;;;;;5031148;28;20981;-70
2021/06/01 10:35:30;;;;;;;2.23;1.90;;;24.40;61.60;;;;;;5029624;28;20458;-70
2021/06/01 10:52:20;;;;;;;2.27;2.00;;;24.40;58.70;;;;;;5026003;28;20588;-71
2021/06/01 10:55:11;;;;;;;1.80;1.70;;;24.50;58.90;;;;;;5035007;28;20449;-70
2021/06/01 10:58:00;;;;;;;1.93;1.73;;;24.40;59.10;;;;;;5024245;28;20458;-70
2021/06/01 11:03:20;;;;;;;4.13;2.07;;;24.20;56.50;;;;;;5013644;28;20486;-70
2021/06/01 11:06:13;;;;;;;3.17;2.03;;;24.30;56.20;;;;;;5034364;28;20537;-70
2021/06/01 11:08:44;;;;;;;3.20;2.40;;;24.50;57.80;;;;;;5033361;28;20583;-71
2021/06/01 11:11:32;;;;;;;2.30;1.80;;;24.50;58.40;;;;;;5024064;28;20947;-71
2021/06/01 11:14:01;;;;;;;4.03;1.80;;;24.50;58.60;;;;;;5032773;28;20645;-71
2021/06/01 11:16:53;;;;;;;1.90;1.70;;;24.50;58.70;;;;;;5034070;28;20453;-71
2021/06/01 11:19:22;;;;;;;4.00;2.27;;;24.40;59.30;;;;;;5032370;28;20826;-71
2021/06/01 11:21:58;;;;;;;2.53;2.33;;;24.40;59.80;;;;;;5034108;28;20478;-71
2021/06/01 11:33:14;;;;;;;6.50;1.60;;;24.30;60.70;;;;;;5013992;28;20434;-71
2021/06/01 11:35:43;;;;;;;1.97;1.80;;;24.30;61.10;;;;;;5015723;28;20478;-71
2021/06/01 11:38:17;;;;;;;5.33;2.27;;;24.30;60.30;;;;;;5031307;28;20461;-71
2021/06/01 11:41:06;;;;;;;2.23;2.00;;;24.20;60.80;;;;;;5029936;28;20973;-71
2021/06/01 11:43:32;;;;;;;2.53;2.00;;;24.20;61.20;;;;;;5018420;28;20842;-70
2021/06/01 11:46:07;;;;;;;4.33;2.27;;;24.20;61.40;;;;;;5030239;28;20450;-72
2021/06/01 11:51:29;;;;;;;3.30;2.63;;;24.10;57.90;;;;;;5029370;28;20485;-71
2021/06/01 11:53:59;;;;;;;3.37;2.00;;;24.30;58.20;;;;;;5029270;28;20461;-70
2021/06/01 11:56:40;;;;;;;2.30;2.10;;;24.40;59.00;;;;;;5026995;28;20458;-70
2021/06/01 12:02:03;;;;;;;2.10;1.90;;;24.30;59.30;;;;;;5025335;28;20465;-71
2021/06/01 12:13:09;;;;;;;2.63;2.20;;;24.20;60.40;;;;;;5028023;28;20588;-70
2021/06/01 12:18:27;;;;;;;2.83;1.90;;;24.10;60.30;;;;;;5029558;28;20536;-70
2021/06/01 12:20:54;;;;;;;2.80;2.30;;;24.10;60.80;;;;;;5029500;28;20846;-70
2021/06/01 12:23:29;;;;;;;1.60;1.50;;;24.00;60.40;;;;;;5031697;28;20565;-70
2021/06/01 12:26:05;;;;;;;1.80;1.70;;;24.00;60.40;;;;;;5022913;28;20454;-70
2021/06/01 12:31:18;;;;;;;4.40;2.30;;;24.00;60.60;;;;;;5030687;28;20465;-71
2021/06/01 12:33:57;;;;;;;3.23;1.80;;;23.90;60.80;;;;;;5030983;28;20494;-70
2021/06/01 12:37:09;;;;;;;2.67;1.97;;;23.90;60.70;;;;;;5023944;28;20465;-70
2021/06/01 13:05:42;;;;;;;4.13;2.00;;;23.90;60.10;;;;;;5031775;28;20499;-70
2021/06/01 13:19:32;;;;;;;1.93;1.73;;;23.80;59.50;;;;;;5028518;28;20535;-70
2021/06/01 13:22:06;;;;;;;3.97;1.70;;;23.80;58.90;;;;;;5030199;28;20485;-70
2021/06/01 13:30:35;;;;;;;1.97;1.40;;;23.80;59.50;;;;;;5025042;28;20493;-70
2021/06/01 13:38:37;;;;;;;2.13;1.60;;;23.80;59.40;;;;;;5030772;28;20441;-74
2021/06/01 13:47:04;;;;;;;4.47;1.80;;;23.80;59.20;;;;;;4985625;28;21025;-73
2021/06/01 13:49:37;;;;;;;5.40;1.30;;;23.80;58.90;;;;;;5004810;28;20722;-73
2021/06/01 13:52:15;;;;;;;1.40;1.30;;;23.80;58.70;;;;;;5028347;28;20926;-74
2021/06/01 13:57:32;;;;;;;2.60;1.80;;;23.80;59.10;;;;;;5030901;28;20426;-74
2021/06/01 14:00:08;;;;;;;1.47;1.37;;;23.80;58.60;;;;;;5029390;28;20457;-73
2021/06/01 14:22:03;;;;;;;1.20;1.10;;;23.80;58.40;;;;;;5030723;28;20610;-73
2021/06/01 14:30:11;;;;;;;1.80;1.33;;;23.80;58.00;;;;;;4971227;28;20521;-74
2021/06/01 14:38:19;;;;;;;5.50;1.83;;;23.80;57.60;;;;;;5034746;28;20429;-73
2021/06/01 14:55:08;;;;;;;1.50;1.40;;;23.80;56.40;;;;;;5034792;28;20437;-74
2021/06/01 15:23:05;;;;;;;3.83;1.67;;;23.80;56.20;;;;;;5029557;28;21105;-74
2021/06/01 15:28:42;;;;;;;1.97;1.67;;;23.80;56.50;;;;;;5032785;28;20582;-73
2021/06/01 15:31:29;;;;;;;1.70;1.60;;;23.80;56.20;;;;;;5032048;28;20545;-74
2021/06/01 15:47:52;;;;;;;1.90;1.40;;;23.80;57.50;;;;;;5031477;28;20945;-76
2021/06/01 15:50:24;;;;;;;11.17;1.47;;;23.90;57.10;;;;;;5012919;28;20505;-74
2021/06/01 16:11:18;;;;;;;2.67;1.73;;;23.90;56.50;;;;;;5031861;28;20534;-73
2021/06/01 16:21:27;;;;;;;1.80;1.30;;;23.90;56.50;;;;;;4978895;28;20579;-74
2021/06/01 16:29:50;;;;;;;2.33;1.37;;;23.90;56.30;;;;;;5030998;28;20457;-74
2021/06/01 16:32:39;;;;;;;1.77;1.30;;;23.90;55.60;;;;;;5030764;28;20546;-75
2021/06/01 16:43:39;;;;;;;2.20;1.40;;;23.90;55.30;;;;;;5031556;28;20638;-74
2021/06/01 17:05:29;;;;;;;1.57;1.43;;;24.00;52.70;;;;;;5025510;28;20433;-70
2021/06/01 17:08:19;;;;;;;3.30;1.60;;;24.10;53.60;;;;;;5025353;28;20517;-70
2021/06/01 17:11:04;;;;;;;1.30;1.17;;;24.10;53.60;;;;;;5031580;28;20434;-70
2021/06/01 17:13:37;;;;;;;2.57;1.50;;;24.10;54.30;;;;;;5030746;28;20434;-70
2021/06/01 17:16:04;;;;;;;3.00;1.60;;;24.10;53.50;;;;;;5030102;28;20784;-70
2021/06/01 17:18:51;;;;;;;1.70;1.50;;;24.10;52.70;;;;;;5030961;28;20853;-70
2021/06/01 17:24:26;;;;;;;4.20;1.90;;;24.20;53.30;;;;;;5029093;28;20456;-70
2021/06/01 17:35:12;;;;;;;1.50;1.33;;;24.20;53.10;;;;;;4998927;28;20434;-70
2021/06/01 17:37:38;;;;;;;3.03;1.33;;;24.20;53.40;;;;;;5030635;28;20482;-70